createdAt,value
2019-04-10T00:00:59.306Z,0.00
2019-04-10T00:01:59.369Z,0.00
2019-04-10T00:02:59.127Z,0.00
2019-04-10T00:03:59.118Z,0.00
2019-04-10T00:04:59.199Z,0.00
2019-04-10T00:05:59.088Z,0.00
2019-04-10T00:07:10.443Z,0.00
2019-04-10T00:08:00.116Z,0.00
2019-04-10T00:08:59.090Z,0.00
2019-04-10T00:09:59.273Z,0.00
2019-04-10T00:10:59.050Z,0.00
2019-04-10T00:11:59.043Z,0.00
2019-04-10T00:12:59.007Z,0.00
2019-04-10T00:13:59.041Z,0.00
2019-04-10T00:14:58.991Z,0.00
2019-04-10T00:15:59.142Z,0.00
2019-04-10T00:16:58.964Z,0.00
2019-04-10T00:17:59.828Z,0.00
2019-04-10T00:18:58.960Z,0.00
2019-04-10T00:19:58.980Z,0.00
2019-04-10T00:20:58.927Z,0.00
2019-04-10T00:21:59.807Z,0.00
2019-04-10T00:22:58.911Z,0.00
2019-04-10T00:23:59.632Z,0.00
2019-04-10T00:24:58.881Z,0.00
2019-04-10T00:25:59.332Z,0.00
2019-04-10T00:26:58.865Z,0.00
2019-04-10T00:27:59.085Z,0.00
2019-04-10T00:28:58.833Z,0.00
2019-04-10T00:29:58.837Z,0.00
2019-04-10T00:30:59.734Z,0.00
2019-04-10T00:32:01.760Z,0.00
2019-04-10T00:32:58.787Z,0.00
2019-04-10T00:33:59.018Z,0.00
2019-04-10T00:34:58.783Z,0.00
2019-04-10T00:35:59.511Z,0.00
2019-04-10T00:36:59.604Z,0.00
2019-04-10T00:37:59.561Z,0.00
2019-04-10T00:38:58.748Z,0.00
2019-04-10T00:39:59.165Z,0.00
2019-04-10T00:40:59.603Z,0.00
2019-04-10T00:41:58.832Z,0.00
2019-04-10T00:42:58.834Z,0.00
2019-04-10T00:43:59.398Z,0.00
2019-04-10T00:44:59.714Z,0.00
2019-04-10T00:45:58.649Z,0.00
2019-04-10T00:46:58.987Z,0.00
2019-04-10T00:47:59.547Z,0.00
2019-04-10T00:48:58.703Z,0.00
2019-04-10T00:49:58.660Z,0.00
2019-04-10T00:50:59.254Z,0.00
2019-04-10T00:51:59.566Z,0.00
2019-04-10T00:52:58.793Z,0.00
2019-04-10T00:53:59.325Z,0.00
2019-04-10T00:54:59.423Z,0.00
2019-04-10T00:55:58.594Z,0.00
2019-04-10T00:56:59.086Z,0.00
2019-04-10T00:57:58.523Z,0.00
2019-04-10T00:58:59.547Z,0.00
2019-04-10T00:59:58.880Z,0.00
2019-04-10T01:00:59.238Z,0.00
2019-04-10T01:01:58.522Z,0.00
2019-04-10T01:02:58.862Z,0.00
2019-04-10T01:03:58.445Z,0.00
2019-04-10T01:04:58.524Z,0.00
2019-04-10T01:05:58.440Z,0.00
2019-04-10T01:06:58.419Z,0.00
2019-04-10T01:07:58.464Z,0.00
2019-04-10T01:08:59.248Z,0.00
2019-04-10T01:09:58.389Z,0.00
2019-04-10T01:10:58.848Z,0.00
2019-04-10T01:11:59.364Z,0.00
2019-04-10T01:12:58.732Z,0.00
2019-04-10T01:13:59.104Z,0.00
2019-04-10T01:14:58.327Z,0.00
2019-04-10T01:15:58.644Z,0.00
2019-04-10T01:16:58.350Z,0.00
2019-04-10T01:17:59.007Z,0.00
2019-04-10T01:18:58.289Z,0.00
2019-04-10T01:19:58.603Z,0.00
2019-04-10T01:20:58.271Z,0.00
2019-04-10T01:21:58.907Z,0.00
2019-04-10T01:22:59.320Z,0.00
2019-04-10T01:23:59.403Z,0.00
2019-04-10T01:24:58.222Z,0.00
2019-04-10T01:25:58.901Z,0.00
2019-04-10T01:26:59.252Z,0.00
2019-04-10T01:27:58.487Z,0.00
2019-04-10T01:28:58.179Z,0.00
2019-04-10T01:29:58.158Z,0.00
2019-04-10T01:30:59.096Z,0.00
2019-04-10T01:31:58.182Z,0.00
2019-04-10T01:32:58.537Z,0.00
2019-04-10T01:33:58.124Z,0.00
2019-04-10T01:34:58.873Z,0.00
2019-04-10T01:35:58.468Z,0.00
2019-04-10T01:36:58.517Z,0.00
2019-04-10T01:38:01.001Z,0.00
2019-04-10T01:38:59.937Z,0.00
2019-04-10T01:39:58.988Z,0.00
2019-04-10T01:40:58.044Z,0.00
2019-04-10T01:41:58.520Z,0.00
2019-04-10T01:43:06.330Z,0.00
2019-04-10T01:43:59.318Z,0.00
2019-04-10T01:44:57.994Z,0.00
2019-04-10T01:45:57.991Z,0.00
2019-04-10T01:46:59.104Z,0.00
2019-04-10T01:47:57.962Z,0.00
2019-04-10T01:48:57.957Z,0.00
2019-04-10T01:49:57.993Z,0.00
2019-04-10T01:50:59.022Z,0.00
2019-04-10T01:51:57.918Z,0.00
2019-04-10T01:52:57.912Z,0.00
2019-04-10T01:53:58.512Z,0.00
2019-04-10T01:54:57.887Z,0.00
2019-04-10T01:55:57.910Z,0.00
2019-04-10T01:56:57.862Z,0.00
2019-04-10T01:57:58.796Z,0.00
2019-04-10T01:58:57.848Z,0.00
2019-04-10T01:59:58.315Z,0.00
2019-04-10T02:00:57.826Z,0.00
2019-04-10T02:01:58.742Z,0.00
2019-04-10T02:02:58.030Z,0.00
2019-04-10T02:03:58.504Z,0.00
2019-04-10T02:04:58.447Z,0.00
2019-04-10T02:05:57.801Z,0.00
2019-04-10T02:06:58.006Z,0.00
2019-04-10T02:08:05.691Z,0.00
2019-04-10T02:08:58.731Z,0.00
2019-04-10T02:09:57.732Z,0.00
2019-04-10T02:10:58.646Z,0.00
2019-04-10T02:11:58.528Z,0.00
2019-04-10T02:12:57.693Z,0.00
2019-04-10T02:13:58.269Z,0.00
2019-04-10T02:14:57.661Z,0.00
2019-04-10T02:15:58.587Z,0.00
2019-04-10T02:16:57.650Z,0.00
2019-04-10T02:17:57.627Z,0.00
2019-04-10T02:18:57.791Z,0.00
2019-04-10T02:19:58.624Z,0.00
2019-04-10T02:20:57.604Z,0.00
2019-04-10T02:21:58.152Z,0.00
2019-04-10T02:22:58.219Z,0.00
2019-04-10T02:23:58.632Z,0.00
2019-04-10T02:24:57.744Z,0.00
2019-04-10T02:25:57.602Z,0.00
2019-04-10T02:26:58.194Z,0.00
2019-04-10T02:27:58.534Z,0.00
2019-04-10T02:28:57.665Z,0.00
2019-04-10T02:29:57.911Z,0.00
2019-04-10T02:30:58.798Z,0.00
2019-04-10T02:31:57.628Z,0.00
2019-04-10T02:32:57.937Z,0.00
2019-04-10T02:33:59.402Z,0.00
2019-04-10T02:34:58.077Z,0.00
2019-04-10T02:35:58.969Z,0.00
2019-04-10T02:36:58.614Z,0.00
2019-04-10T02:38:00.565Z,0.00
2019-04-10T02:39:08.827Z,0.00
2019-04-10T02:40:00.990Z,0.00
2019-04-10T02:40:57.640Z,0.00
2019-04-10T02:41:58.386Z,0.00
2019-04-10T02:42:58.872Z,0.00
2019-04-10T02:43:58.025Z,0.00
2019-04-10T02:44:57.837Z,0.00
2019-04-10T02:45:57.729Z,0.00
2019-04-10T02:46:59.255Z,0.00
2019-04-10T02:47:57.301Z,0.00
2019-04-10T02:48:58.061Z,0.00
2019-04-10T02:49:57.323Z,0.00
2019-04-10T02:50:57.627Z,0.00
2019-04-10T02:51:57.262Z,0.00
2019-04-10T02:52:57.762Z,0.00
2019-04-10T02:53:57.995Z,0.00
2019-04-10T02:54:57.804Z,0.00
2019-04-10T02:55:58.236Z,0.00
2019-04-10T02:56:57.606Z,0.00
2019-04-10T02:57:58.765Z,0.00
2019-04-10T02:58:58.463Z,0.00
2019-04-10T02:59:57.643Z,0.00
2019-04-10T03:00:58.958Z,0.00
2019-04-10T03:01:57.978Z,0.00
2019-04-10T03:02:59.207Z,0.00
2019-04-10T03:03:57.115Z,0.00
2019-04-10T03:04:57.425Z,0.00
2019-04-10T03:05:58.653Z,0.00
2019-04-10T03:06:57.609Z,0.00
2019-04-10T03:07:58.229Z,0.00
2019-04-10T03:09:10.835Z,0.00
2019-04-10T03:10:08.992Z,0.00
2019-04-10T03:11:02.636Z,0.00
2019-04-10T03:11:59.312Z,0.00
2019-04-10T03:12:58.566Z,0.00
2019-04-10T03:13:57.069Z,0.00
2019-04-10T03:14:57.014Z,0.00
2019-04-10T03:15:57.821Z,0.00
2019-04-10T03:16:56.974Z,0.00
2019-04-10T03:17:56.972Z,0.00
2019-04-10T03:18:56.971Z,0.00
2019-04-10T03:19:58.087Z,0.00
2019-04-10T03:20:56.932Z,0.00
2019-04-10T03:21:57.657Z,0.00
2019-04-10T03:22:56.963Z,0.00
2019-04-10T03:23:57.927Z,0.00
2019-04-10T03:24:56.923Z,0.00
2019-04-10T03:25:57.297Z,0.00
2019-04-10T03:26:56.864Z,0.00
2019-04-10T03:27:56.867Z,0.00
2019-04-10T03:28:57.755Z,0.00
2019-04-10T03:29:57.108Z,0.00
2019-04-10T03:30:59.986Z,0.00
2019-04-10T03:31:57.712Z,0.00
2019-04-10T03:33:02.582Z,0.00
2019-04-10T03:33:58.637Z,0.00
2019-04-10T03:34:56.776Z,0.00
2019-04-10T03:35:57.074Z,0.00
2019-04-10T03:36:57.982Z,0.00
2019-04-10T03:37:57.421Z,0.00
2019-04-10T03:39:01.432Z,0.00
2019-04-10T03:39:57.742Z,0.00
2019-04-10T03:40:56.711Z,0.00
2019-04-10T03:41:56.833Z,0.00
2019-04-10T03:42:57.209Z,0.00
2019-04-10T03:43:56.730Z,0.00
2019-04-10T03:44:56.955Z,0.00
2019-04-10T03:45:57.147Z,0.00
2019-04-10T03:46:56.645Z,0.00
2019-04-10T03:47:57.871Z,0.00
2019-04-10T03:48:57.679Z,0.00
2019-04-10T03:49:56.636Z,0.00
2019-04-10T03:50:57.691Z,0.00
2019-04-10T03:51:56.767Z,0.00
2019-04-10T03:52:56.577Z,0.00
2019-04-10T03:53:56.573Z,0.00
2019-04-10T03:54:56.625Z,0.00
2019-04-10T03:55:57.090Z,0.00
2019-04-10T03:56:56.529Z,0.00
2019-04-10T03:57:56.536Z,0.00
2019-04-10T03:58:56.509Z,0.00
2019-04-10T03:59:56.591Z,0.00
2019-04-10T04:00:56.545Z,0.00
2019-04-10T04:01:57.495Z,0.00
2019-04-10T04:02:56.463Z,0.00
2019-04-10T04:03:57.278Z,0.00
2019-04-10T04:04:56.450Z,0.00
2019-04-10T04:05:57.231Z,0.00
2019-04-10T04:06:56.436Z,0.00
2019-04-10T04:07:57.136Z,0.00
2019-04-10T04:09:06.653Z,0.00
2019-04-10T04:09:57.387Z,0.00
2019-04-10T04:10:57.260Z,0.00
2019-04-10T04:11:56.370Z,0.00
2019-04-10T04:12:57.205Z,0.00
2019-04-10T04:13:56.379Z,0.00
2019-04-10T04:14:56.945Z,0.00
2019-04-10T04:15:56.340Z,0.00
2019-04-10T04:16:56.308Z,0.00
2019-04-10T04:17:56.861Z,4.00
2019-04-10T04:18:56.303Z,0.00
2019-04-10T04:19:56.689Z,0.00
2019-04-10T04:20:56.267Z,4.00
2019-04-10T04:21:56.440Z,0.00
2019-04-10T04:22:57.048Z,4.00
2019-04-10T04:23:57.233Z,4.00
2019-04-10T04:24:56.249Z,8.00
2019-04-10T04:25:56.863Z,8.00
2019-04-10T04:26:57.269Z,8.00
2019-04-10T04:27:56.261Z,8.00
2019-04-10T04:28:56.198Z,12.00
2019-04-10T04:29:56.172Z,16.00
2019-04-10T04:30:56.818Z,20.00
2019-04-10T04:31:56.892Z,20.00
2019-04-10T04:32:56.152Z,28.00
2019-04-10T04:33:56.135Z,28.00
2019-04-10T04:34:56.371Z,36.00
2019-04-10T04:35:56.207Z,40.00
2019-04-10T04:36:56.141Z,48.00
2019-04-10T04:37:56.153Z,52.00
2019-04-10T04:38:56.098Z,64.00
2019-04-10T04:39:56.332Z,72.00
2019-04-10T04:40:56.045Z,84.00
2019-04-10T04:41:56.373Z,96.00
2019-04-10T04:42:56.060Z,112.00
2019-04-10T04:43:56.051Z,124.00
2019-04-10T04:44:56.278Z,140.00
2019-04-10T04:45:55.993Z,160.00
2019-04-10T04:46:57.031Z,176.00
2019-04-10T04:47:55.979Z,196.00
2019-04-10T04:48:55.959Z,216.00
2019-04-10T04:49:56.267Z,236.00
2019-04-10T04:50:56.681Z,260.00
2019-04-10T04:51:55.935Z,280.00
2019-04-10T04:52:55.998Z,300.00
2019-04-10T04:53:56.908Z,324.00
2019-04-10T04:54:55.937Z,348.00
2019-04-10T04:55:55.933Z,376.00
2019-04-10T04:56:56.183Z,404.00
2019-04-10T04:57:55.866Z,440.00
2019-04-10T04:58:55.974Z,472.00
2019-04-10T04:59:56.851Z,508.00
2019-04-10T05:00:56.462Z,540.00
2019-04-10T05:01:56.984Z,576.00
2019-04-10T05:02:55.858Z,612.00
2019-04-10T05:03:55.812Z,652.00
2019-04-10T05:04:55.922Z,692.00
2019-04-10T05:05:56.189Z,736.00
2019-04-10T05:06:55.770Z,780.00
2019-04-10T05:08:00.059Z,824.00
2019-04-10T05:08:56.875Z,868.00
2019-04-10T05:09:56.165Z,912.00
2019-04-10T05:10:56.030Z,960.00
2019-04-10T05:11:55.709Z,1012.00
2019-04-10T05:12:55.791Z,1060.00
2019-04-10T05:13:55.969Z,1108.00
2019-04-10T05:14:55.781Z,1156.00
2019-04-10T05:15:55.667Z,1212.00
2019-04-10T05:16:55.674Z,1264.00
2019-04-10T05:17:55.724Z,1316.00
2019-04-10T05:18:56.221Z,1368.00
2019-04-10T05:19:55.673Z,1420.00
2019-04-10T05:20:56.691Z,1476.00
2019-04-10T05:21:55.595Z,1528.00
2019-04-10T05:22:55.615Z,1588.00
2019-04-10T05:23:55.581Z,1644.00
2019-04-10T05:24:56.400Z,1700.00
2019-04-10T05:25:56.149Z,1756.00
2019-04-10T05:26:55.554Z,1812.00
2019-04-10T05:27:55.536Z,1876.00
2019-04-10T05:28:55.555Z,1936.00
2019-04-10T05:29:55.644Z,2000.00
2019-04-10T05:30:55.505Z,2064.00
2019-04-10T05:31:56.563Z,2128.00
2019-04-10T05:32:55.720Z,2188.00
2019-04-10T05:33:55.511Z,2256.00
2019-04-10T05:34:55.548Z,2320.00
2019-04-10T05:35:55.449Z,2380.00
2019-04-10T05:36:55.433Z,2440.00
2019-04-10T05:37:56.133Z,2496.00
2019-04-10T05:38:55.406Z,2552.00
2019-04-10T05:39:55.427Z,2604.00
2019-04-10T05:40:55.384Z,2656.00
2019-04-10T05:41:55.377Z,2704.00
2019-04-10T05:42:55.538Z,2752.00
2019-04-10T05:43:55.403Z,2796.00
2019-04-10T05:44:56.449Z,2844.00
2019-04-10T05:45:55.336Z,2888.00
2019-04-10T05:46:55.318Z,2936.00
2019-04-10T05:47:55.308Z,2976.00
2019-04-10T05:48:55.931Z,3016.00
2019-04-10T05:49:55.590Z,3056.00
2019-04-10T05:51:02.287Z,3096.00
2019-04-10T05:51:56.271Z,3140.00
2019-04-10T05:52:55.883Z,3180.00
2019-04-10T05:53:55.498Z,3228.00
2019-04-10T05:54:55.744Z,3272.00
2019-04-10T05:55:55.875Z,3320.00
2019-04-10T05:56:55.316Z,3364.00
2019-04-10T05:57:55.316Z,3408.00
2019-04-10T05:58:55.189Z,3460.00
2019-04-10T05:59:56.191Z,3512.00
2019-04-10T06:00:55.191Z,3568.00
2019-04-10T06:01:55.189Z,3624.00
2019-04-10T06:02:56.375Z,3676.00
2019-04-10T06:03:55.150Z,3728.00
2019-04-10T06:04:55.980Z,3780.00
2019-04-10T06:05:56.333Z,3832.00
2019-04-10T06:06:55.111Z,3880.00
2019-04-10T06:07:55.123Z,3928.00
2019-04-10T06:08:55.969Z,3980.00
2019-04-10T06:10:00.231Z,4016.00
2019-04-10T06:10:56.160Z,4064.00
2019-04-10T06:11:55.346Z,4120.00
2019-04-10T06:12:55.117Z,4168.00
2019-04-10T06:13:55.050Z,4224.00
2019-04-10T06:14:55.025Z,4272.00
2019-04-10T06:15:55.160Z,4316.00
2019-04-10T06:16:55.128Z,4372.00
2019-04-10T06:17:55.008Z,4436.00
2019-04-10T06:18:55.556Z,4500.00
2019-04-10T06:19:55.004Z,4560.00
2019-04-10T06:20:54.949Z,4620.00
2019-04-10T06:21:54.974Z,4680.00
2019-04-10T06:22:54.954Z,4736.00
2019-04-10T06:23:56.712Z,4796.00
2019-04-10T06:24:54.902Z,4860.00
2019-04-10T06:25:56.228Z,4936.00
2019-04-10T06:26:56.085Z,5008.00
2019-04-10T06:27:54.895Z,5088.00
2019-04-10T06:28:54.859Z,5172.00
2019-04-10T06:29:55.249Z,5244.00
2019-04-10T06:30:54.831Z,5312.00
2019-04-10T06:31:54.872Z,5384.00
2019-04-10T06:32:55.748Z,5464.00
2019-04-10T06:33:54.801Z,5540.00
2019-04-10T06:34:55.312Z,5612.00
2019-04-10T06:35:55.130Z,5668.00
2019-04-10T06:36:54.815Z,5732.00
2019-04-10T06:37:54.845Z,5784.00
2019-04-10T06:38:55.121Z,5836.00
2019-04-10T06:40:05.058Z,5888.00
2019-04-10T06:40:55.748Z,5940.00
2019-04-10T06:41:54.716Z,5988.00
2019-04-10T06:42:56.390Z,6028.00
2019-04-10T06:43:55.248Z,6064.00
2019-04-10T06:44:54.680Z,6096.00
2019-04-10T06:45:55.759Z,6128.00
2019-04-10T06:46:54.967Z,6156.00
2019-04-10T06:47:54.980Z,6184.00
2019-04-10T06:48:54.642Z,6200.00
2019-04-10T06:49:55.467Z,6220.00
2019-04-10T06:50:55.638Z,6232.00
2019-04-10T06:51:55.589Z,6244.00
2019-04-10T06:52:54.801Z,6256.00
2019-04-10T06:54:02.781Z,6272.00
2019-04-10T06:54:55.782Z,6296.00
2019-04-10T06:55:54.582Z,6332.00
2019-04-10T06:56:54.595Z,6376.00
2019-04-10T06:57:57.562Z,6420.00
2019-04-10T06:58:54.595Z,6492.00
2019-04-10T06:59:54.533Z,6520.00
2019-04-10T07:00:55.268Z,6560.00
2019-04-10T07:01:56.689Z,6616.00
2019-04-10T07:02:54.691Z,6684.00
2019-04-10T07:04:00.990Z,6752.00
2019-04-10T07:05:01.546Z,6772.00
2019-04-10T07:06:06.237Z,6800.00
2019-04-10T07:07:00.730Z,6844.00
2019-04-10T07:08:01.848Z,6872.00
2019-04-10T07:08:55.501Z,6868.00
2019-04-10T07:09:55.211Z,6888.00
2019-04-10T07:11:01.759Z,6928.00
2019-04-10T07:11:59.464Z,7000.00
2019-04-10T07:12:55.436Z,7192.00
2019-04-10T07:13:55.212Z,7296.00
2019-04-10T07:14:57.805Z,7416.00
2019-04-10T07:15:57.663Z,7572.00
2019-04-10T07:16:54.915Z,7744.00
2019-04-10T07:17:55.470Z,7836.00
2019-04-10T07:18:54.302Z,7912.00
2019-04-10T07:19:54.314Z,8008.00
2019-04-10T07:20:59.252Z,8128.00
2019-04-10T07:21:56.316Z,8192.00
2019-04-10T07:22:55.416Z,8260.00
2019-04-10T07:23:57.354Z,8332.00
2019-04-10T07:24:54.489Z,8464.00
2019-04-10T07:25:55.057Z,8580.00
2019-04-10T07:26:55.205Z,8624.00
2019-04-10T07:27:54.412Z,8716.00
2019-04-10T07:28:54.436Z,8792.00
2019-04-10T07:29:58.058Z,8864.00
2019-04-10T07:31:00.206Z,8948.00
2019-04-10T07:31:55.159Z,9000.00
2019-04-10T07:32:55.109Z,9092.00
2019-04-10T07:33:54.891Z,9236.00
2019-04-10T07:34:59.114Z,9384.00
2019-04-10T07:35:56.623Z,9512.00
2019-04-10T07:36:54.114Z,9644.00
2019-04-10T07:37:56.656Z,9876.00
2019-04-10T07:38:56.193Z,10348.00
2019-04-10T07:39:55.086Z,10588.00
2019-04-10T07:40:54.704Z,10724.00
2019-04-10T07:41:54.103Z,10832.00
2019-04-10T07:42:54.565Z,10836.00
2019-04-10T07:43:56.554Z,10888.00
2019-04-10T07:44:56.206Z,10980.00
2019-04-10T07:45:56.655Z,11072.00
2019-04-10T07:46:55.259Z,11008.00
2019-04-10T07:47:54.032Z,11012.00
2019-04-10T07:48:54.514Z,11276.00
2019-04-10T07:49:54.590Z,11452.00
2019-04-10T07:50:53.962Z,11548.00
2019-04-10T07:51:54.118Z,11876.00
2019-04-10T07:52:54.234Z,11896.00
2019-04-10T07:53:53.968Z,11828.00
2019-04-10T07:54:54.568Z,11688.00
2019-04-10T07:56:01.424Z,11856.00
2019-04-10T07:56:55.733Z,12060.00
2019-04-10T07:57:55.109Z,12388.00
2019-04-10T07:58:53.901Z,12164.00
2019-04-10T07:59:54.605Z,12244.00
2019-04-10T08:00:53.857Z,12500.00
2019-04-10T08:01:53.850Z,13056.00
2019-04-10T08:02:53.844Z,12968.00
2019-04-10T08:03:54.040Z,13212.00
2019-04-10T08:04:53.961Z,13592.00
2019-04-10T08:05:54.744Z,13984.00
2019-04-10T08:06:54.380Z,13932.00
2019-04-10T08:07:55.924Z,13888.00
2019-04-10T08:08:53.748Z,13784.00
2019-04-10T08:09:54.066Z,13592.00
2019-04-10T08:10:53.739Z,13716.00
2019-04-10T08:11:54.453Z,14000.00
2019-04-10T08:12:54.328Z,14156.00
2019-04-10T08:13:54.926Z,14128.00
2019-04-10T08:14:54.052Z,14056.00
2019-04-10T08:15:54.192Z,14168.00
2019-04-10T08:16:53.662Z,14216.00
2019-04-10T08:17:54.038Z,14208.00
2019-04-10T08:18:54.165Z,14188.00
2019-04-10T08:19:53.627Z,14136.00
2019-04-10T08:20:53.610Z,14196.00
2019-04-10T08:21:54.816Z,14324.00
2019-04-10T08:22:53.595Z,14540.00
2019-04-10T08:23:54.792Z,14668.00
2019-04-10T08:24:53.639Z,14756.00
2019-04-10T08:25:53.766Z,14700.00
2019-04-10T08:26:53.551Z,14708.00
2019-04-10T08:27:54.321Z,14900.00
2019-04-10T08:28:53.816Z,15012.00
2019-04-10T08:29:53.571Z,15104.00
2019-04-10T08:30:54.563Z,15072.00
2019-04-10T08:31:53.501Z,15156.00
2019-04-10T08:33:00.715Z,15032.00
2019-04-10T08:33:54.749Z,14748.00
2019-04-10T08:34:53.464Z,14692.00
2019-04-10T08:35:53.497Z,14664.00
2019-04-10T08:36:55.048Z,14620.00
2019-04-10T08:37:53.465Z,14688.00
2019-04-10T08:38:53.422Z,14668.00
2019-04-10T08:39:53.476Z,14656.00
2019-04-10T08:40:54.398Z,14684.00
2019-04-10T08:41:54.380Z,14784.00
2019-04-10T08:42:53.502Z,14812.00
2019-04-10T08:43:54.438Z,14796.00
2019-04-10T08:44:54.221Z,14860.00
2019-04-10T08:45:53.987Z,14916.00
2019-04-10T08:46:53.331Z,15040.00
2019-04-10T08:47:53.356Z,15124.00
2019-04-10T08:48:53.914Z,15236.00
2019-04-10T08:49:53.333Z,15328.00
2019-04-10T08:50:53.291Z,15412.00
2019-04-10T08:51:53.273Z,15464.00
2019-04-10T08:52:53.637Z,15512.00
2019-04-10T08:53:55.199Z,15508.00
2019-04-10T08:54:53.281Z,15560.00
2019-04-10T08:55:53.261Z,15760.00
2019-04-10T08:56:53.226Z,15852.00
2019-04-10T08:57:54.404Z,15828.00
2019-04-10T08:58:53.201Z,15880.00
2019-04-10T08:59:54.140Z,15872.00
2019-04-10T09:00:54.282Z,15868.00
2019-04-10T09:01:53.659Z,15884.00
2019-04-10T09:02:53.145Z,15572.00
2019-04-10T09:03:53.162Z,15636.00
2019-04-10T09:04:53.230Z,15652.00
2019-04-10T09:05:53.229Z,15620.00
2019-04-10T09:06:53.110Z,15528.00
2019-04-10T09:07:53.092Z,15480.00
2019-04-10T09:08:53.136Z,15512.00
2019-04-10T09:09:54.090Z,15504.00
2019-04-10T09:10:53.076Z,15536.00
2019-04-10T09:11:53.504Z,15436.00
2019-04-10T09:12:54.513Z,15468.00
2019-04-10T09:13:53.040Z,15448.00
2019-04-10T09:14:53.877Z,15288.00
2019-04-10T09:15:54.035Z,15108.00
2019-04-10T09:16:53.146Z,14916.00
2019-04-10T09:17:53.044Z,14828.00
2019-04-10T09:18:53.810Z,14708.00
2019-04-10T09:19:54.010Z,14696.00
2019-04-10T09:20:53.140Z,14640.00
2019-04-10T09:21:52.943Z,14624.00
2019-04-10T09:23:14.427Z,14760.00
2019-04-10T09:23:56.207Z,14808.00
2019-04-10T09:24:52.951Z,14792.00
2019-04-10T09:25:52.928Z,14764.00
2019-04-10T09:26:52.916Z,14832.00
2019-04-10T09:27:53.872Z,14948.00
2019-04-10T09:28:52.979Z,14920.00
2019-04-10T09:29:53.928Z,14980.00
2019-04-10T09:30:53.222Z,15028.00
2019-04-10T09:31:53.758Z,15016.00
2019-04-10T09:32:52.842Z,15052.00
2019-04-10T09:33:53.718Z,15040.00
2019-04-10T09:34:53.017Z,15076.00
2019-04-10T09:35:53.015Z,15156.00
2019-04-10T09:36:53.457Z,15172.00
2019-04-10T09:37:52.759Z,15220.00
2019-04-10T09:38:52.897Z,15248.00
2019-04-10T09:39:54.669Z,15220.00
2019-04-10T09:40:53.305Z,15208.00
2019-04-10T09:41:52.971Z,15160.00
2019-04-10T09:42:52.709Z,15164.00
2019-04-10T09:43:52.697Z,15220.00
2019-04-10T09:44:52.855Z,15288.00
2019-04-10T09:45:53.576Z,15316.00
2019-04-10T09:46:53.711Z,15268.00
2019-04-10T09:47:52.686Z,15140.00
2019-04-10T09:48:52.643Z,15080.00
2019-04-10T09:49:53.593Z,15124.00
2019-04-10T09:50:52.687Z,15268.00
2019-04-10T09:51:52.601Z,15444.00
2019-04-10T09:52:52.596Z,15592.00
2019-04-10T09:53:53.161Z,15728.00
2019-04-10T09:54:53.150Z,15792.00
2019-04-10T09:55:52.556Z,15824.00
2019-04-10T09:56:52.830Z,15792.00
2019-04-10T09:57:52.574Z,15724.00
2019-04-10T09:58:53.239Z,15724.00
2019-04-10T09:59:52.711Z,15744.00
2019-04-10T10:00:52.500Z,15808.00
2019-04-10T10:01:52.813Z,15892.00
2019-04-10T10:02:52.986Z,15940.00
2019-04-10T10:03:52.795Z,16000.00
2019-04-10T10:04:53.489Z,16044.00
2019-04-10T10:05:53.067Z,16204.00
2019-04-10T10:06:53.367Z,16308.00
2019-04-10T10:07:53.605Z,16456.00
2019-04-10T10:08:52.430Z,16572.00
2019-04-10T10:09:52.392Z,16668.00
2019-04-10T10:10:53.382Z,16784.00
2019-04-10T10:11:53.401Z,16876.00
2019-04-10T10:12:52.653Z,17052.00
2019-04-10T10:13:52.358Z,17148.00
2019-04-10T10:14:52.342Z,17296.00
2019-04-10T10:15:52.326Z,17664.00
2019-04-10T10:16:52.637Z,17760.00
2019-04-10T10:17:52.919Z,17824.00
2019-04-10T10:18:52.301Z,17952.00
2019-04-10T10:19:53.840Z,18080.00
2019-04-10T10:20:52.341Z,18080.00
2019-04-10T10:21:52.566Z,18144.00
2019-04-10T10:22:52.243Z,18144.00
2019-04-10T10:23:52.270Z,18304.00
2019-04-10T10:24:53.096Z,18464.00
2019-04-10T10:25:53.216Z,18624.00
2019-04-10T10:26:52.202Z,18688.00
2019-04-10T10:27:52.197Z,18816.00
2019-04-10T10:28:52.512Z,18880.00
2019-04-10T10:29:53.522Z,18880.00
2019-04-10T10:30:52.237Z,18944.00
2019-04-10T10:31:52.687Z,18976.00
2019-04-10T10:32:53.171Z,18944.00
2019-04-10T10:33:52.234Z,18976.00
2019-04-10T10:34:52.490Z,18976.00
2019-04-10T10:35:52.133Z,18816.00
2019-04-10T10:36:53.300Z,18688.00
2019-04-10T10:37:52.076Z,18688.00
2019-04-10T10:39:03.644Z,18592.00
2019-04-10T10:39:53.053Z,18400.00
2019-04-10T10:40:52.884Z,18592.00
2019-04-10T10:41:52.072Z,18688.00
2019-04-10T10:42:52.020Z,18848.00
2019-04-10T10:43:52.978Z,19104.00
2019-04-10T10:44:52.225Z,19392.00
2019-04-10T10:45:51.991Z,19584.00
2019-04-10T10:46:51.977Z,19712.00
2019-04-10T10:47:52.674Z,19712.00
2019-04-10T10:48:51.970Z,19968.00
2019-04-10T10:49:52.839Z,20192.00
2019-04-10T10:50:53.204Z,20448.00
2019-04-10T10:51:53.209Z,20640.00
2019-04-10T10:52:52.198Z,20736.00
2019-04-10T10:53:52.502Z,20704.00
2019-04-10T10:54:51.896Z,21024.00
2019-04-10T10:55:51.876Z,21344.00
2019-04-10T10:56:52.889Z,21760.00
2019-04-10T10:57:51.865Z,22048.00
2019-04-10T10:58:53.032Z,22240.00
2019-04-10T10:59:51.945Z,22432.00
2019-04-10T11:00:51.860Z,22496.00
2019-04-10T11:01:51.975Z,22752.00
2019-04-10T11:02:51.953Z,22848.00
2019-04-10T11:03:51.788Z,22944.00
2019-04-10T11:04:51.787Z,22912.00
2019-04-10T11:05:52.803Z,23136.00
2019-04-10T11:06:59.640Z,23488.00
2019-04-10T11:07:53.119Z,23520.00
2019-04-10T11:08:51.752Z,23616.00
2019-04-10T11:09:52.947Z,23712.00
2019-04-10T11:10:55.687Z,23584.00
2019-04-10T11:11:51.737Z,23488.00
2019-04-10T11:12:52.191Z,23040.00
2019-04-10T11:13:51.745Z,23648.00
2019-04-10T11:14:52.301Z,23840.00
2019-04-10T11:15:52.514Z,23872.00
2019-04-10T11:16:51.751Z,23872.00
2019-04-10T11:17:52.056Z,23968.00
2019-04-10T11:18:52.956Z,24480.00
2019-04-10T11:19:51.609Z,24384.00
2019-04-10T11:20:52.297Z,25344.00
2019-04-10T11:21:51.587Z,27552.00
2019-04-10T11:22:51.578Z,27648.00
2019-04-10T11:23:53.146Z,28160.00
2019-04-10T11:24:51.554Z,28192.00
2019-04-10T11:25:52.729Z,27680.00
2019-04-10T11:26:51.956Z,22464.00
2019-04-10T11:27:51.651Z,22336.00
2019-04-10T11:28:51.511Z,24384.00
2019-04-10T11:29:51.550Z,22176.00
2019-04-10T11:30:51.488Z,23168.00
2019-04-10T11:31:51.482Z,24480.00
2019-04-10T11:32:52.453Z,25760.00
2019-04-10T11:33:54.971Z,26720.00
2019-04-10T11:34:52.629Z,25568.00
2019-04-10T11:35:51.661Z,22976.00
2019-04-10T11:37:14.168Z,20768.00
2019-04-10T11:37:56.182Z,20896.00
2019-04-10T11:38:54.849Z,20544.00
2019-04-10T11:39:51.759Z,21184.00
2019-04-10T11:40:52.173Z,21600.00
2019-04-10T11:41:52.777Z,21728.00
2019-04-10T11:42:52.693Z,21696.00
2019-04-10T11:43:52.770Z,21792.00
2019-04-10T11:44:53.811Z,22144.00
2019-04-10T11:45:53.851Z,21888.00
2019-04-10T11:46:55.138Z,21696.00
2019-04-10T11:47:51.728Z,22048.00
2019-04-10T11:48:51.902Z,22016.00
2019-04-10T11:49:53.329Z,21856.00
2019-04-10T11:50:53.583Z,21984.00
2019-04-10T11:51:53.639Z,21856.00
2019-04-10T11:52:53.354Z,22272.00
2019-04-10T11:53:55.868Z,22272.00
2019-04-10T11:54:53.181Z,22432.00
2019-04-10T11:55:53.652Z,22304.00
2019-04-10T11:56:54.934Z,21824.00
2019-04-10T11:57:51.670Z,21664.00
2019-04-10T11:59:52.163Z,21344.00
2019-04-10T12:00:53.150Z,21152.00
2019-04-10T12:01:57.023Z,21056.00
2019-04-10T12:02:53.528Z,21056.00
2019-04-10T12:03:54.337Z,21056.00
2019-04-10T12:04:55.689Z,21056.00
2019-04-10T12:05:55.139Z,21088.00
2019-04-10T12:06:54.041Z,21088.00
2019-04-10T12:08:16.230Z,21152.00
2019-04-10T12:09:13.764Z,21184.00
2019-04-10T12:11:53.028Z,21376.00
2019-04-10T12:12:52.223Z,21440.00
2019-04-10T12:13:51.025Z,21536.00
2019-04-10T12:14:52.022Z,21632.00
2019-04-10T12:15:51.021Z,21728.00
2019-04-10T12:16:51.562Z,21952.00
2019-04-10T12:17:51.996Z,22304.00
2019-04-10T12:18:50.992Z,22496.00
2019-04-10T12:19:50.949Z,22624.00
2019-04-10T12:20:51.519Z,22528.00
2019-04-10T12:21:51.116Z,22656.00
2019-04-10T12:22:50.911Z,22848.00
2019-04-10T12:23:51.490Z,23424.00
2019-04-10T12:24:51.685Z,23424.00
2019-04-10T12:25:52.024Z,23968.00
2019-04-10T12:26:51.891Z,24224.00